Clogher, United Kingdom
Current Conditions -  °F | °C
As of 5:20 AM on Thursday 23 Oct 2014 (Local Time) from EGAA Reporting Station
Broken Clouds Broken Clouds  
Wind Chill: 12°   Ceiling: 1600
Heat Index: 12°   Visibility: 6mi
Dew Point: 10°   Wind: 13mph
Humidity: 88%   Direction: 220°SW
Pressure: 29.85"   Gusts: NA
Location:  54.41°N, 7.17°W
Report Text: EGAA 230420Z 22011KT 9999 BKN016 12/10 Q1011
Loading
Personal Weather Stations






























Interactive Weather Map
Tropical Storm Tracking
New forecast layout! Learn more

10-Day Weather Forecast

Advertisements
Track Severe Weather on mobile